sensor_id;sensor_type;location;lat;lon;timestamp;temperature;humidity
75799;DHT22;70933;44.692;37.776;2023-07-13T00:00:19;28.00;29.07
75799;DHT22;70933;44.692;37.776;2023-07-13T00:01:21;27.99;29.08
75799;DHT22;70933;44.692;37.776;2023-07-13T00:02:25;27.99;28.91
75799;DHT22;70933;44.692;37.776;2023-07-13T00:03:28;28.00;28.89
75799;DHT22;70933;44.692;37.776;2023-07-13T00:04:36;27.99;28.91
75799;DHT22;70933;44.692;37.776;2023-07-13T00:05:38;27.99;28.86
75799;DHT22;70933;44.692;37.776;2023-07-13T00:06:39;27.99;29.02
75799;DHT22;70933;44.692;37.776;2023-07-13T00:07:41;27.99;29.06
75799;DHT22;70933;44.692;37.776;2023-07-13T00:08:43;27.99;28.97
75799;DHT22;70933;44.692;37.776;2023-07-13T00:09:45;28.00;29.16
75799;DHT22;70933;44.692;37.776;2023-07-13T00:10:46;27.98;29.10
75799;DHT22;70933;44.692;37.776;2023-07-13T00:11:53;27.99;29.24
75799;DHT22;70933;44.692;37.776;2023-07-13T00:12:55;27.98;29.29
75799;DHT22;70933;44.692;37.776;2023-07-13T00:13:57;27.99;29.18
75799;DHT22;70933;44.692;37.776;2023-07-13T00:15:04;27.99;29.29
75799;DHT22;70933;44.692;37.776;2023-07-13T00:16:07;28.00;29.20
75799;DHT22;70933;44.692;37.776;2023-07-13T00:17:09;28.00;29.06
75799;DHT22;70933;44.692;37.776;2023-07-13T00:18:11;27.98;29.06
75799;DHT22;70933;44.692;37.776;2023-07-13T00:19:13;27.99;29.14
75799;DHT22;70933;44.692;37.776;2023-07-13T00:20:15;27.99;29.16
75799;DHT22;70933;44.692;37.776;2023-07-13T00:21:17;27.99;29.22
75799;DHT22;70933;44.692;37.776;2023-07-13T00:22:19;28.00;29.18
75799;DHT22;70933;44.692;37.776;2023-07-13T00:23:21;27.99;29.19
75799;DHT22;70933;44.692;37.776;2023-07-13T00:24:22;27.99;29.17
75799;DHT22;70933;44.692;37.776;2023-07-13T00:25:25;27.98;29.18
75799;DHT22;70933;44.692;37.776;2023-07-13T00:26:29;27.98;29.13
75799;DHT22;70933;44.692;37.776;2023-07-13T00:27:31;27.98;29.18
75799;DHT22;70933;44.692;37.776;2023-07-13T00:28:33;27.97;29.18
75799;DHT22;70933;44.692;37.776;2023-07-13T00:29:36;27.99;29.22
75799;DHT22;70933;44.692;37.776;2023-07-13T00:30:38;27.97;29.32
75799;DHT22;70933;44.692;37.776;2023-07-13T00:31:40;27.97;29.36
75799;DHT22;70933;44.692;37.776;2023-07-13T00:32:42;27.98;29.27
75799;DHT22;70933;44.692;37.776;2023-07-13T00:33:43;27.98;29.33
75799;DHT22;70933;44.692;37.776;2023-07-13T00:34:45;27.96;29.37
75799;DHT22;70933;44.692;37.776;2023-07-13T00:35:47;27.97;29.27
75799;DHT22;70933;44.692;37.776;2023-07-13T00:36:49;27.96;29.34
75799;DHT22;70933;44.692;37.776;2023-07-13T00:37:50;27.97;29.26
75799;DHT22;70933;44.692;37.776;2023-07-13T00:38:52;27.97;29.31
75799;DHT22;70933;44.692;37.776;2023-07-13T00:39:54;27.98;29.33
75799;DHT22;70933;44.692;37.776;2023-07-13T00:40:56;27.96;29.24
75799;DHT22;70933;44.692;37.776;2023-07-13T00:41:59;27.96;29.33
75799;DHT22;70933;44.692;37.776;2023-07-13T00:43:01;27.96;29.31
75799;DHT22;70933;44.692;37.776;2023-07-13T00:44:04;27.98;29.29
75799;DHT22;70933;44.692;37.776;2023-07-13T00:46:31;27.96;29.51
75799;DHT22;70933;44.692;37.776;2023-07-13T00:47:33;27.96;29.37
75799;DHT22;70933;44.692;37.776;2023-07-13T00:48:37;27.97;29.36
75799;DHT22;70933;44.692;37.776;2023-07-13T00:49:39;27.96;29.38
75799;DHT22;70933;44.692;37.776;2023-07-13T00:50:41;27.97;29.29
75799;DHT22;70933;44.692;37.776;2023-07-13T00:51:54;27.97;29.35
75799;DHT22;70933;44.692;37.776;2023-07-13T00:52:57;27.96;29.36
75799;DHT22;70933;44.692;37.776;2023-07-13T00:54:01;27.95;29.28
75799;DHT22;70933;44.692;37.776;2023-07-13T00:55:05;27.96;29.37
75799;DHT22;70933;44.692;37.776;2023-07-13T00:56:07;27.96;29.35
75799;DHT22;70933;44.692;37.776;2023-07-13T00:57:12;27.95;29.49
75799;DHT22;70933;44.692;37.776;2023-07-13T00:58:15;27.95;29.42
75799;DHT22;70933;44.692;37.776;2023-07-13T00:59:18;27.96;29.35
75799;DHT22;70933;44.692;37.776;2023-07-13T01:00:22;27.94;29.34
75799;DHT22;70933;44.692;37.776;2023-07-13T01:01:24;27.94;29.42
75799;DHT22;70933;44.692;37.776;2023-07-13T01:02:28;27.95;29.29
75799;DHT22;70933;44.692;37.776;2023-07-13T01:03:31;27.95;29.22
75799;DHT22;70933;44.692;37.776;2023-07-13T01:04:33;27.95;29.19
75799;DHT22;70933;44.692;37.776;2023-07-13T01:05:35;27.96;29.16
75799;DHT22;70933;44.692;37.776;2023-07-13T01:06:39;27.95;29.20
75799;DHT22;70933;44.692;37.776;2023-07-13T01:07:43;27.96;29.22
75799;DHT22;70933;44.692;37.776;2023-07-13T01:08:45;27.96;29.19
75799;DHT22;70933;44.692;37.776;2023-07-13T01:09:47;27.94;29.16
75799;DHT22;70933;44.692;37.776;2023-07-13T01:10:56;27.95;29.05
75799;DHT22;70933;44.692;37.776;2023-07-13T01:12:00;27.95;29.16
75799;DHT22;70933;44.692;37.776;2023-07-13T01:13:01;27.95;29.04
75799;DHT22;70933;44.692;37.776;2023-07-13T01:14:04;27.94;29.04
75799;DHT22;70933;44.692;37.776;2023-07-13T01:15:36;27.93;29.16
75799;DHT22;70933;44.692;37.776;2023-07-13T01:16:39;27.93;29.17
75799;DHT22;70933;44.692;37.776;2023-07-13T01:17:42;27.93;29.03
75799;DHT22;70933;44.692;37.776;2023-07-13T01:18:44;27.93;29.00
75799;DHT22;70933;44.692;37.776;2023-07-13T01:19:46;27.94;29.16
75799;DHT22;70933;44.692;37.776;2023-07-13T01:21:56;27.93;29.06
75799;DHT22;70933;44.692;37.776;2023-07-13T01:22:58;27.91;29.03
75799;DHT22;70933;44.692;37.776;2023-07-13T01:24:01;27.93;28.98
75799;DHT22;70933;44.692;37.776;2023-07-13T01:25:03;27.91;28.90
75799;DHT22;70933;44.692;37.776;2023-07-13T01:26:05;27.91;29.01
75799;DHT22;70933;44.692;37.776;2023-07-13T01:27:08;27.90;28.94
75799;DHT22;70933;44.692;37.776;2023-07-13T01:28:10;27.91;28.99
75799;DHT22;70933;44.692;37.776;2023-07-13T01:29:13;27.89;28.81
75799;DHT22;70933;44.692;37.776;2023-07-13T01:30:15;27.90;28.95
75799;DHT22;70933;44.692;37.776;2023-07-13T01:31:17;27.89;28.75
75799;DHT22;70933;44.692;37.776;2023-07-13T01:32:21;27.90;28.75
75799;DHT22;70933;44.692;37.776;2023-07-13T01:33:26;27.90;28.74
75799;DHT22;70933;44.692;37.776;2023-07-13T01:34:28;27.90;28.67
75799;DHT22;70933;44.692;37.776;2023-07-13T01:35:30;27.89;28.74
75799;DHT22;70933;44.692;37.776;2023-07-13T01:36:31;27.89;28.76
75799;DHT22;70933;44.692;37.776;2023-07-13T01:37:33;27.89;28.72
75799;DHT22;70933;44.692;37.776;2023-07-13T01:38:37;27.89;28.70
75799;DHT22;70933;44.692;37.776;2023-07-13T01:39:39;27.89;28.66
75799;DHT22;70933;44.692;37.776;2023-07-13T01:40:41;27.90;28.62
75799;DHT22;70933;44.692;37.776;2023-07-13T01:41:43;27.89;28.71
75799;DHT22;70933;44.692;37.776;2023-07-13T01:42:49;27.89;28.66
75799;DHT22;70933;44.692;37.776;2023-07-13T01:43:51;27.88;28.70
75799;DHT22;70933;44.692;37.776;2023-07-13T01:44:52;27.88;28.84
75799;DHT22;70933;44.692;37.776;2023-07-13T01:45:54;27.88;28.81
75799;DHT22;70933;44.692;37.776;2023-07-13T01:46:57;27.89;28.79
75799;DHT22;70933;44.692;37.776;2023-07-13T01:47:59;27.88;28.65
75799;DHT22;70933;44.692;37.776;2023-07-13T01:49:01;27.90;28.58
75799;DHT22;70933;44.692;37.776;2023-07-13T01:50:04;27.88;28.69
75799;DHT22;70933;44.692;37.776;2023-07-13T01:51:06;27.87;28.58
75799;DHT22;70933;44.692;37.776;2023-07-13T01:52:07;27.88;28.57
75799;DHT22;70933;44.692;37.776;2023-07-13T01:53:09;27.88;28.52
75799;DHT22;70933;44.692;37.776;2023-07-13T01:54:11;27.89;28.42
75799;DHT22;70933;44.692;37.776;2023-07-13T01:55:13;27.87;28.31
75799;DHT22;70933;44.692;37.776;2023-07-13T01:56:16;27.88;28.16
75799;DHT22;70933;44.692;37.776;2023-07-13T01:57:18;27.86;28.14
75799;DHT22;70933;44.692;37.776;2023-07-13T01:58:21;27.86;27.91
75799;DHT22;70933;44.692;37.776;2023-07-13T01:59:22;27.86;27.73
75799;DHT22;70933;44.692;37.776;2023-07-13T02:00:24;27.86;27.55
75799;DHT22;70933;44.692;37.776;2023-07-13T02:01:26;27.85;28.85
75799;DHT22;70933;44.692;37.776;2023-07-13T02:02:29;27.86;30.03
75799;DHT22;70933;44.692;37.776;2023-07-13T02:03:31;27.87;31.47
75799;DHT22;70933;44.692;37.776;2023-07-13T02:04:34;27.91;31.54
75799;DHT22;70933;44.692;37.776;2023-07-13T02:05:36;27.91;31.27
75799;DHT22;70933;44.692;37.776;2023-07-13T02:06:38;27.93;30.96
75799;DHT22;70933;44.692;37.776;2023-07-13T02:07:40;27.94;30.94
75799;DHT22;70933;44.692;37.776;2023-07-13T02:08:42;27.94;30.67
75799;DHT22;70933;44.692;37.776;2023-07-13T02:09:44;27.94;30.36
75799;DHT22;70933;44.692;37.776;2023-07-13T02:10:45;27.93;30.17
75799;DHT22;70933;44.692;37.776;2023-07-13T02:11:47;27.94;30.12
75799;DHT22;70933;44.692;37.776;2023-07-13T02:12:50;27.91;29.97
75799;DHT22;70933;44.692;37.776;2023-07-13T02:13:52;27.93;29.88
75799;DHT22;70933;44.692;37.776;2023-07-13T02:14:54;27.93;29.65
75799;DHT22;70933;44.692;37.776;2023-07-13T02:15:55;27.91;29.72
75799;DHT22;70933;44.692;37.776;2023-07-13T02:16:57;27.90;29.61
75799;DHT22;70933;44.692;37.776;2023-07-13T02:17:59;27.91;29.53
75799;DHT22;70933;44.692;37.776;2023-07-13T02:19:20;27.90;29.48
75799;DHT22;70933;44.692;37.776;2023-07-13T02:20:23;27.89;29.45
75799;DHT22;70933;44.692;37.776;2023-07-13T02:21:26;27.89;29.50
75799;DHT22;70933;44.692;37.776;2023-07-13T02:22:27;27.89;29.39
75799;DHT22;70933;44.692;37.776;2023-07-13T02:23:32;27.89;29.50
75799;DHT22;70933;44.692;37.776;2023-07-13T02:24:34;27.90;29.39
75799;DHT22;70933;44.692;37.776;2023-07-13T02:25:35;27.89;29.77
75799;DHT22;70933;44.692;37.776;2023-07-13T02:26:37;27.88;29.65
75799;DHT22;70933;44.692;37.776;2023-07-13T02:27:39;27.88;29.57
75799;DHT22;70933;44.692;37.776;2023-07-13T02:28:40;27.88;29.55
75799;DHT22;70933;44.692;37.776;2023-07-13T02:29:42;27.87;29.53
75799;DHT22;70933;44.692;37.776;2023-07-13T02:30:44;27.87;29.80
75799;DHT22;70933;44.692;37.776;2023-07-13T02:31:45;27.88;30.95
75799;DHT22;70933;44.692;37.776;2023-07-13T02:32:47;27.90;32.53
75799;DHT22;70933;44.692;37.776;2023-07-13T02:33:49;27.93;33.04
75799;DHT22;70933;44.692;37.776;2023-07-13T02:34:51;27.94;32.47
75799;DHT22;70933;44.692;37.776;2023-07-13T02:35:54;27.94;31.90
75799;DHT22;70933;44.692;37.776;2023-07-13T02:36:57;27.95;31.41
75799;DHT22;70933;44.692;37.776;2023-07-13T02:37:59;27.95;31.19
75799;DHT22;70933;44.692;37.776;2023-07-13T02:39:02;27.95;30.96
75799;DHT22;70933;44.692;37.776;2023-07-13T02:40:04;27.94;30.75
75799;DHT22;70933;44.692;37.776;2023-07-13T02:41:11;27.94;30.64
75799;DHT22;70933;44.692;37.776;2023-07-13T02:42:14;27.94;30.39
75799;DHT22;70933;44.692;37.776;2023-07-13T02:43:16;27.94;30.32
75799;DHT22;70933;44.692;37.776;2023-07-13T02:44:18;27.93;30.16
75799;DHT22;70933;44.692;37.776;2023-07-13T02:45:19;27.90;30.16
75799;DHT22;70933;44.692;37.776;2023-07-13T02:46:21;27.91;30.08
75799;DHT22;70933;44.692;37.776;2023-07-13T02:47:23;27.90;30.02
75799;DHT22;70933;44.692;37.776;2023-07-13T02:48:24;27.90;29.96
75799;DHT22;70933;44.692;37.776;2023-07-13T02:49:26;27.89;29.90
75799;DHT22;70933;44.692;37.776;2023-07-13T02:50:28;27.90;29.82
75799;DHT22;70933;44.692;37.776;2023-07-13T02:51:29;27.89;29.88
75799;DHT22;70933;44.692;37.776;2023-07-13T02:52:31;27.88;29.77
75799;DHT22;70933;44.692;37.776;2023-07-13T02:53:33;27.89;29.70
75799;DHT22;70933;44.692;37.776;2023-07-13T02:54:37;27.88;29.68
75799;DHT22;70933;44.692;37.776;2023-07-13T02:55:38;27.88;29.68
75799;DHT22;70933;44.692;37.776;2023-07-13T02:56:42;27.88;29.70
75799;DHT22;70933;44.692;37.776;2023-07-13T02:57:45;27.87;29.77
75799;DHT22;70933;44.692;37.776;2023-07-13T02:58:46;27.88;30.72
75799;DHT22;70933;44.692;37.776;2023-07-13T02:59:48;27.90;31.91
75799;DHT22;70933;44.692;37.776;2023-07-13T03:00:52;27.93;33.00
75799;DHT22;70933;44.692;37.776;2023-07-13T03:01:55;27.94;32.28
75799;DHT22;70933;44.692;37.776;2023-07-13T03:02:59;27.96;31.92
75799;DHT22;70933;44.692;37.776;2023-07-13T03:04:02;27.97;31.52
75799;DHT22;70933;44.692;37.776;2023-07-13T03:05:06;27.96;31.26
75799;DHT22;70933;44.692;37.776;2023-07-13T03:06:08;27.96;30.99
75799;DHT22;70933;44.692;37.776;2023-07-13T03:07:17;27.95;30.58
75799;DHT22;70933;44.692;37.776;2023-07-13T03:08:20;27.94;30.25
75799;DHT22;70933;44.692;37.776;2023-07-13T03:09:25;27.94;29.98
75799;DHT22;70933;44.692;37.776;2023-07-13T03:10:28;27.93;29.68
75799;DHT22;70933;44.692;37.776;2023-07-13T03:11:30;27.93;29.41
75799;DHT22;70933;44.692;37.776;2023-07-13T03:12:42;27.91;29.12
75799;DHT22;70933;44.692;37.776;2023-07-13T03:13:52;27.89;28.73
75799;DHT22;70933;44.692;37.776;2023-07-13T03:14:55;27.91;28.63
75799;DHT22;70933;44.692;37.776;2023-07-13T03:15:58;27.89;28.39
75799;DHT22;70933;44.692;37.776;2023-07-13T03:17:00;27.88;28.14
75799;DHT22;70933;44.692;37.776;2023-07-13T03:18:05;27.88;28.04
75799;DHT22;70933;44.692;37.776;2023-07-13T03:19:07;27.88;28.12
75799;DHT22;70933;44.692;37.776;2023-07-13T03:20:09;27.88;29.42
75799;DHT22;70933;44.692;37.776;2023-07-13T03:21:11;27.88;30.49
75799;DHT22;70933;44.692;37.776;2023-07-13T03:22:14;27.89;32.38
75799;DHT22;70933;44.692;37.776;2023-07-13T03:23:17;27.91;32.12
75799;DHT22;70933;44.692;37.776;2023-07-13T03:24:19;27.90;31.83
75799;DHT22;70933;44.692;37.776;2023-07-13T03:25:21;27.91;31.48
75799;DHT22;70933;44.692;37.776;2023-07-13T03:26:24;27.91;31.03
75799;DHT22;70933;44.692;37.776;2023-07-13T03:27:26;27.91;30.67
75799;DHT22;70933;44.692;37.776;2023-07-13T03:28:27;27.90;30.33
75799;DHT22;70933;44.692;37.776;2023-07-13T03:29:29;27.90;29.91
75799;DHT22;70933;44.692;37.776;2023-07-13T03:30:31;27.90;29.75
75799;DHT22;70933;44.692;37.776;2023-07-13T03:31:36;27.90;29.56
75799;DHT22;70933;44.692;37.776;2023-07-13T03:32:37;27.89;30.46
75799;DHT22;70933;44.692;37.776;2023-07-13T03:33:40;27.90;32.29
75799;DHT22;70933;44.692;37.776;2023-07-13T03:34:42;27.90;33.62
75799;DHT22;70933;44.692;37.776;2023-07-13T03:35:44;27.94;33.99
75799;DHT22;70933;44.692;37.776;2023-07-13T03:36:46;27.95;33.40
75799;DHT22;70933;44.692;37.776;2023-07-13T03:37:48;27.97;32.91
75799;DHT22;70933;44.692;37.776;2023-07-13T03:38:56;27.97;32.46
75799;DHT22;70933;44.692;37.776;2023-07-13T03:40:01;27.96;32.07
75799;DHT22;70933;44.692;37.776;2023-07-13T03:41:05;27.96;31.72
75799;DHT22;70933;44.692;37.776;2023-07-13T03:42:07;27.96;31.38
75799;DHT22;70933;44.692;37.776;2023-07-13T03:43:08;27.95;31.12
75799;DHT22;70933;44.692;37.776;2023-07-13T03:44:11;27.95;30.93
75799;DHT22;70933;44.692;37.776;2023-07-13T03:45:13;27.95;30.71
75799;DHT22;70933;44.692;37.776;2023-07-13T03:46:15;27.95;30.56
75799;DHT22;70933;44.692;37.776;2023-07-13T03:47:18;27.94;30.42
75799;DHT22;70933;44.692;37.776;2023-07-13T03:48:20;27.93;30.21
75799;DHT22;70933;44.692;37.776;2023-07-13T03:49:22;27.94;29.99
75799;DHT22;70933;44.692;37.776;2023-07-13T03:50:24;27.94;29.88
75799;DHT22;70933;44.692;37.776;2023-07-13T03:51:25;27.93;29.71
75799;DHT22;70933;44.692;37.776;2023-07-13T03:52:27;27.93;29.60
75799;DHT22;70933;44.692;37.776;2023-07-13T03:53:29;27.91;29.55
75799;DHT22;70933;44.692;37.776;2023-07-13T03:54:31;27.93;29.42
75799;DHT22;70933;44.692;37.776;2023-07-13T03:55:35;27.93;29.43
75799;DHT22;70933;44.692;37.776;2023-07-13T03:56:37;27.93;29.32
75799;DHT22;70933;44.692;37.776;2023-07-13T03:57:41;27.91;29.19
75799;DHT22;70933;44.692;37.776;2023-07-13T03:58:46;27.90;29.12
75799;DHT22;70933;44.692;37.776;2023-07-13T03:59:53;27.89;29.19
75799;DHT22;70933;44.692;37.776;2023-07-13T04:00:55;27.90;29.13
75799;DHT22;70933;44.692;37.776;2023-07-13T04:01:58;27.89;29.10
75799;DHT22;70933;44.692;37.776;2023-07-13T04:03:00;27.88;29.11
75799;DHT22;70933;44.692;37.776;2023-07-13T04:04:02;27.89;29.03
75799;DHT22;70933;44.692;37.776;2023-07-13T04:05:05;27.88;28.99
75799;DHT22;70933;44.692;37.776;2023-07-13T04:06:13;27.87;28.97
75799;DHT22;70933;44.692;37.776;2023-07-13T04:07:16;27.88;28.96
75799;DHT22;70933;44.692;37.776;2023-07-13T04:08:18;27.87;28.96
75799;DHT22;70933;44.692;37.776;2023-07-13T04:09:20;27.88;28.90
75799;DHT22;70933;44.692;37.776;2023-07-13T04:10:22;27.88;28.87
75799;DHT22;70933;44.692;37.776;2023-07-13T04:11:27;27.86;28.80
75799;DHT22;70933;44.692;37.776;2023-07-13T04:12:29;27.86;28.84
75799;DHT22;70933;44.692;37.776;2023-07-13T04:13:31;27.86;28.81
75799;DHT22;70933;44.692;37.776;2023-07-13T04:14:33;27.86;28.84
75799;DHT22;70933;44.692;37.776;2023-07-13T04:15:35;27.86;28.77
75799;DHT22;70933;44.692;37.776;2023-07-13T04:16:36;27.86;28.74
75799;DHT22;70933;44.692;37.776;2023-07-13T04:17:38;27.85;28.64
75799;DHT22;70933;44.692;37.776;2023-07-13T04:18:40;27.85;28.48
75799;DHT22;70933;44.692;37.776;2023-07-13T04:19:42;27.85;28.23
75799;DHT22;70933;44.692;37.776;2023-07-13T04:20:44;27.83;28.21
75799;DHT22;70933;44.692;37.776;2023-07-13T04:21:46;27.83;28.07
75799;DHT22;70933;44.692;37.776;2023-07-13T04:22:48;27.83;28.09
75799;DHT22;70933;44.692;37.776;2023-07-13T04:23:53;27.84;27.84
75799;DHT22;70933;44.692;37.776;2023-07-13T04:24:55;27.82;27.68
75799;DHT22;70933;44.692;37.776;2023-07-13T04:25:57;27.81;27.55
75799;DHT22;70933;44.692;37.776;2023-07-13T04:26:58;27.81;27.44
75799;DHT22;70933;44.692;37.776;2023-07-13T04:28:03;27.80;27.34
75799;DHT22;70933;44.692;37.776;2023-07-13T04:29:05;27.79;27.36
75799;DHT22;70933;44.692;37.776;2023-07-13T04:30:08;27.79;27.35
75799;DHT22;70933;44.692;37.776;2023-07-13T04:31:10;27.78;27.21
75799;DHT22;70933;44.692;37.776;2023-07-13T04:32:12;27.78;27.19
75799;DHT22;70933;44.692;37.776;2023-07-13T04:33:13;27.76;27.19
75799;DHT22;70933;44.692;37.776;2023-07-13T04:34:15;27.74;27.36
75799;DHT22;70933;44.692;37.776;2023-07-13T04:35:19;27.78;29.26
75799;DHT22;70933;44.692;37.776;2023-07-13T04:36:22;27.76;31.52
75799;DHT22;70933;44.692;37.776;2023-07-13T04:37:23;27.81;32.39
75799;DHT22;70933;44.692;37.776;2023-07-13T04:38:28;27.82;31.22
75799;DHT22;70933;44.692;37.776;2023-07-13T04:39:30;27.82;30.79
75799;DHT22;70933;44.692;37.776;2023-07-13T04:40:31;27.83;30.39
75799;DHT22;70933;44.692;37.776;2023-07-13T04:41:33;27.83;30.11
75799;DHT22;70933;44.692;37.776;2023-07-13T04:42:35;27.83;29.73
75799;DHT22;70933;44.692;37.776;2023-07-13T04:43:36;27.82;29.47
75799;DHT22;70933;44.692;37.776;2023-07-13T04:44:38;27.82;29.10
75799;DHT22;70933;44.692;37.776;2023-07-13T04:45:41;27.81;29.02
75799;DHT22;70933;44.692;37.776;2023-07-13T04:46:42;27.80;28.81
75799;DHT22;70933;44.692;37.776;2023-07-13T04:47:44;27.80;28.61
75799;DHT22;70933;44.692;37.776;2023-07-13T04:48:46;27.80;28.29
75799;DHT22;70933;44.692;37.776;2023-07-13T04:49:50;27.79;28.32
75799;DHT22;70933;44.692;37.776;2023-07-13T04:50:56;27.78;28.22
75799;DHT22;70933;44.692;37.776;2023-07-13T04:51:58;27.78;28.36
75799;DHT22;70933;44.692;37.776;2023-07-13T04:53:00;27.76;28.20
75799;DHT22;70933;44.692;37.776;2023-07-13T04:54:02;27.78;28.16
75799;DHT22;70933;44.692;37.776;2023-07-13T04:55:04;27.75;28.22
75799;DHT22;70933;44.692;37.776;2023-07-13T04:56:06;27.75;27.93
75799;DHT22;70933;44.692;37.776;2023-07-13T04:57:08;27.74;28.12
75799;DHT22;70933;44.692;37.776;2023-07-13T04:58:09;27.74;27.98
75799;DHT22;70933;44.692;37.776;2023-07-13T04:59:11;27.73;27.96
75799;DHT22;70933;44.692;37.776;2023-07-13T05:00:14;27.73;27.96
75799;DHT22;70933;44.692;37.776;2023-07-13T05:01:17;27.72;28.25
75799;DHT22;70933;44.692;37.776;2023-07-13T05:02:20;27.72;29.61
75799;DHT22;70933;44.692;37.776;2023-07-13T05:03:23;27.73;30.47
75799;DHT22;70933;44.692;37.776;2023-07-13T05:04:24;27.73;30.90
75799;DHT22;70933;44.692;37.776;2023-07-13T05:05:26;27.74;31.09
75799;DHT22;70933;44.692;37.776;2023-07-13T05:06:28;27.73;31.12
75799;DHT22;70933;44.692;37.776;2023-07-13T05:07:31;27.74;31.41
75799;DHT22;70933;44.692;37.776;2023-07-13T05:08:34;27.74;31.56
75799;DHT22;70933;44.692;37.776;2023-07-13T05:09:36;27.75;31.62
75799;DHT22;70933;44.692;37.776;2023-07-13T05:10:38;27.75;31.45
75799;DHT22;70933;44.692;37.776;2023-07-13T05:11:40;27.74;31.70
75799;DHT22;70933;44.692;37.776;2023-07-13T05:12:42;27.76;32.08
75799;DHT22;70933;44.692;37.776;2023-07-13T05:13:44;27.78;31.79
75799;DHT22;70933;44.692;37.776;2023-07-13T05:14:45;27.79;32.24
75799;DHT22;70933;44.692;37.776;2023-07-13T05:15:55;27.80;32.11
75799;DHT22;70933;44.692;37.776;2023-07-13T05:16:57;27.81;32.24
75799;DHT22;70933;44.692;37.776;2023-07-13T05:17:59;27.81;32.12
75799;DHT22;70933;44.692;37.776;2023-07-13T05:19:00;27.81;32.29
75799;DHT22;70933;44.692;37.776;2023-07-13T05:20:02;27.82;32.35
75799;DHT22;70933;44.692;37.776;2023-07-13T05:21:07;27.84;31.90
75799;DHT22;70933;44.692;37.776;2023-07-13T05:22:09;27.83;31.87
75799;DHT22;70933;44.692;37.776;2023-07-13T05:23:11;27.84;31.70
75799;DHT22;70933;44.692;37.776;2023-07-13T05:24:13;27.85;31.66
75799;DHT22;70933;44.692;37.776;2023-07-13T05:25:15;27.85;31.75
75799;DHT22;70933;44.692;37.776;2023-07-13T05:26:16;27.86;32.24
75799;DHT22;70933;44.692;37.776;2023-07-13T05:27:18;27.85;31.90
75799;DHT22;70933;44.692;37.776;2023-07-13T05:28:21;27.87;32.16
75799;DHT22;70933;44.692;37.776;2023-07-13T05:29:23;27.88;31.90
75799;DHT22;70933;44.692;37.776;2023-07-13T05:30:25;27.86;32.49
75799;DHT22;70933;44.692;37.776;2023-07-13T05:31:26;27.88;32.14
75799;DHT22;70933;44.692;37.776;2023-07-13T05:32:29;27.88;32.02
75799;DHT22;70933;44.692;37.776;2023-07-13T05:33:31;27.89;32.04
75799;DHT22;70933;44.692;37.776;2023-07-13T05:34:32;27.88;32.02
75799;DHT22;70933;44.692;37.776;2023-07-13T05:35:34;27.89;32.01
75799;DHT22;70933;44.692;37.776;2023-07-13T05:36:36;27.89;32.07
75799;DHT22;70933;44.692;37.776;2023-07-13T05:37:37;27.89;32.01
75799;DHT22;70933;44.692;37.776;2023-07-13T05:38:40;27.89;31.85
75799;DHT22;70933;44.692;37.776;2023-07-13T05:39:41;27.93;32.09
75799;DHT22;70933;44.692;37.776;2023-07-13T05:40:44;27.91;32.35
75799;DHT22;70933;44.692;37.776;2023-07-13T05:41:46;27.93;32.39
75799;DHT22;70933;44.692;37.776;2023-07-13T05:42:48;27.94;32.24
75799;DHT22;70933;44.692;37.776;2023-07-13T05:43:49;27.95;32.31
75799;DHT22;70933;44.692;37.776;2023-07-13T05:44:51;27.96;32.47
75799;DHT22;70933;44.692;37.776;2023-07-13T05:45:54;27.96;32.33
75799;DHT22;70933;44.692;37.776;2023-07-13T05:46:57;27.96;32.44
75799;DHT22;70933;44.692;37.776;2023-07-13T05:47:59;27.96;32.73
75799;DHT22;70933;44.692;37.776;2023-07-13T05:49:01;27.97;32.77
75799;DHT22;70933;44.692;37.776;2023-07-13T05:50:03;27.97;32.90
75799;DHT22;70933;44.692;37.776;2023-07-13T05:51:04;27.98;32.58
75799;DHT22;70933;44.692;37.776;2023-07-13T05:52:06;27.97;32.75
75799;DHT22;70933;44.692;37.776;2023-07-13T05:53:08;27.99;32.59
75799;DHT22;70933;44.692;37.776;2023-07-13T05:54:10;27.99;32.51
75799;DHT22;70933;44.692;37.776;2023-07-13T05:55:12;28.00;32.61
75799;DHT22;70933;44.692;37.776;2023-07-13T05:56:13;28.01;32.65
75799;DHT22;70933;44.692;37.776;2023-07-13T05:57:15;28.02;32.75
75799;DHT22;70933;44.692;37.776;2023-07-13T05:58:17;28.04;33.37
75799;DHT22;70933;44.692;37.776;2023-07-13T05:59:19;28.03;33.24
75799;DHT22;70933;44.692;37.776;2023-07-13T06:00:21;28.05;33.20
75799;DHT22;70933;44.692;37.776;2023-07-13T06:01:23;28.06;33.28
75799;DHT22;70933;44.692;37.776;2023-07-13T06:02:24;28.04;33.15
75799;DHT22;70933;44.692;37.776;2023-07-13T06:03:28;28.06;33.17
75799;DHT22;70933;44.692;37.776;2023-07-13T06:04:29;28.05;32.97
75799;DHT22;70933;44.692;37.776;2023-07-13T06:05:31;28.06;32.76
75799;DHT22;70933;44.692;37.776;2023-07-13T06:06:35;28.06;32.57
75799;DHT22;70933;44.692;37.776;2023-07-13T06:07:37;28.06;32.16
75799;DHT22;70933;44.692;37.776;2023-07-13T06:08:39;28.06;32.05
75799;DHT22;70933;44.692;37.776;2023-07-13T06:09:41;28.06;32.17
75799;DHT22;70933;44.692;37.776;2023-07-13T06:10:43;28.06;32.21
75799;DHT22;70933;44.692;37.776;2023-07-13T06:11:45;28.05;32.54
75799;DHT22;70933;44.692;37.776;2023-07-13T06:12:46;28.08;32.51
75799;DHT22;70933;44.692;37.776;2023-07-13T06:13:48;28.08;32.38
75799;DHT22;70933;44.692;37.776;2023-07-13T06:14:50;28.09;33.03
75799;DHT22;70933;44.692;37.776;2023-07-13T06:15:52;28.10;33.35
75799;DHT22;70933;44.692;37.776;2023-07-13T06:16:54;28.12;32.90
75799;DHT22;70933;44.692;37.776;2023-07-13T06:17:55;28.12;33.06
75799;DHT22;70933;44.692;37.776;2023-07-13T06:18:57;28.12;32.89
75799;DHT22;70933;44.692;37.776;2023-07-13T06:19:59;28.14;32.85
75799;DHT22;70933;44.692;37.776;2023-07-13T06:21:22;28.14;33.05
75799;DHT22;70933;44.692;37.776;2023-07-13T06:22:23;28.14;33.65
75799;DHT22;70933;44.692;37.776;2023-07-13T06:23:25;28.16;33.75
75799;DHT22;70933;44.692;37.776;2023-07-13T06:24:27;28.17;33.70
75799;DHT22;70933;44.692;37.776;2023-07-13T06:25:29;28.17;33.78
75799;DHT22;70933;44.692;37.776;2023-07-13T06:26:30;28.17;33.86
75799;DHT22;70933;44.692;37.776;2023-07-13T06:27:33;28.17;33.74
75799;DHT22;70933;44.692;37.776;2023-07-13T06:28:35;28.19;33.83
75799;DHT22;70933;44.692;37.776;2023-07-13T06:29:37;28.20;34.12
75799;DHT22;70933;44.692;37.776;2023-07-13T06:30:39;28.20;34.17
75799;DHT22;70933;44.692;37.776;2023-07-13T06:31:41;28.20;34.12